createdAt,value
2019-04-28T00:01:31.088Z,6.10
2019-04-28T00:04:01.308Z,6.00
2019-04-28T00:06:31.079Z,6.10
2019-04-28T00:09:01.606Z,6.00
2019-04-28T00:11:31.633Z,6.00
2019-04-28T00:14:01.901Z,6.10
2019-04-28T00:16:31.119Z,6.10
2019-04-28T00:19:01.130Z,6.10
2019-04-28T00:21:41.469Z,6.20
2019-04-28T00:24:27.041Z,6.20
2019-04-28T00:26:57.291Z,6.10
2019-04-28T00:29:37.729Z,6.20
2019-04-28T00:31:55.910Z,6.10
2019-04-28T00:34:24.553Z,6.10
2019-04-28T00:36:54.673Z,6.10
2019-04-28T00:39:23.084Z,6.10
2019-04-28T00:41:51.735Z,6.00
2019-04-28T00:44:21.819Z,6.00
2019-04-28T00:46:51.148Z,5.90
2019-04-28T00:49:23.288Z,6.00
2019-04-28T00:51:51.826Z,6.00
2019-04-28T00:54:21.826Z,6.00
2019-04-28T00:56:51.692Z,6.00
2019-04-28T00:59:21.705Z,5.90
2019-04-28T01:01:54.652Z,5.80
2019-04-28T01:04:23.084Z,5.80
2019-04-28T01:06:52.123Z,5.80
2019-04-28T01:09:21.766Z,5.70
2019-04-28T01:11:51.163Z,5.60
2019-04-28T01:14:21.313Z,5.50
2019-04-28T01:16:51.621Z,5.60
2019-04-28T01:19:21.668Z,5.50
2019-04-28T01:21:57.730Z,5.40
2019-04-28T01:24:26.251Z,5.30
2019-04-28T01:26:56.227Z,5.30
2019-04-28T01:29:24.633Z,5.30
2019-04-28T01:32:00.723Z,5.30
2019-04-28T01:34:30.047Z,5.40
2019-04-28T01:36:59.817Z,5.30
2019-04-28T01:39:29.759Z,5.40
2019-04-28T01:41:59.516Z,5.30
2019-04-28T01:44:29.717Z,5.30
2019-04-28T01:47:00.996Z,5.40
2019-04-28T01:49:29.512Z,5.30
2019-04-28T01:52:00.861Z,5.20
2019-04-28T01:54:30.383Z,5.20
2019-04-28T01:57:01.105Z,5.10
2019-04-28T01:59:30.277Z,5.00
2019-04-28T02:02:00.067Z,5.00
2019-04-28T02:04:32.177Z,5.00
2019-04-28T02:06:59.832Z,5.00
2019-04-28T02:09:29.602Z,5.00
2019-04-28T02:11:58.272Z,5.00
2019-04-28T02:14:26.678Z,5.00
2019-04-28T02:16:55.128Z,5.00
2019-04-28T02:19:23.527Z,4.90
2019-04-28T02:21:53.602Z,4.90
2019-04-28T02:24:26.417Z,4.90
2019-04-28T02:26:54.905Z,5.00
2019-04-28T02:29:23.297Z,5.00
2019-04-28T02:31:52.083Z,5.00
2019-04-28T02:34:21.132Z,5.00
2019-04-28T02:36:50.617Z,5.00
2019-04-28T02:39:20.715Z,5.00
2019-04-28T02:41:51.157Z,5.00
2019-04-28T02:44:23.078Z,5.00
2019-04-28T02:46:50.731Z,5.00
2019-04-28T02:49:21.200Z,4.90
2019-04-28T02:51:51.310Z,5.00
2019-04-28T02:54:20.377Z,5.10
2019-04-28T02:56:51.044Z,5.10
2019-04-28T02:59:21.017Z,5.10
2019-04-28T03:01:50.955Z,5.10
2019-04-28T03:04:20.318Z,5.10
2019-04-28T03:06:51.619Z,5.00
2019-04-28T03:09:20.268Z,5.10
2019-04-28T03:11:51.042Z,5.00
2019-04-28T03:14:20.884Z,5.10
2019-04-28T03:16:50.991Z,5.00
2019-04-28T03:19:21.155Z,5.00
2019-04-28T03:21:51.009Z,4.90
2019-04-28T03:24:21.295Z,4.90
2019-04-28T03:26:54.304Z,4.80
2019-04-28T03:29:33.380Z,4.70
2019-04-28T03:32:28.789Z,4.60
2019-04-28T03:34:44.778Z,4.60
2019-04-28T03:37:13.289Z,4.60
2019-04-28T03:39:41.694Z,4.60
2019-04-28T03:42:11.671Z,4.60
2019-04-28T03:44:41.384Z,4.60
2019-04-28T03:47:10.757Z,4.70
2019-04-28T03:49:40.590Z,4.70
2019-04-28T03:52:10.760Z,4.70
2019-04-28T03:54:40.944Z,4.80
2019-04-28T03:57:11.358Z,4.80
2019-04-28T03:59:43.089Z,4.80
2019-04-28T04:02:11.382Z,4.80
2019-04-28T04:04:41.513Z,4.80
2019-04-28T04:07:11.156Z,4.80
2019-04-28T04:09:41.522Z,4.90
2019-04-28T04:12:27.197Z,4.90
2019-04-28T04:14:57.260Z,5.10
2019-04-28T04:17:33.607Z,5.10
2019-04-28T04:20:02.208Z,5.10
2019-04-28T04:22:31.408Z,5.10
2019-04-28T04:25:01.341Z,5.20
2019-04-28T04:27:30.941Z,5.20
2019-04-28T04:30:01.527Z,5.20
2019-04-28T04:32:30.395Z,5.10
2019-04-28T04:35:00.761Z,5.10
2019-04-28T04:37:30.776Z,5.10
2019-04-28T04:40:01.256Z,5.10
2019-04-28T04:42:30.667Z,5.00
2019-04-28T04:45:00.575Z,5.00
2019-04-28T04:47:32.479Z,5.10
2019-04-28T04:50:00.351Z,5.10
2019-04-28T04:52:30.454Z,5.20
2019-04-28T04:55:01.316Z,5.20
2019-04-28T04:57:32.428Z,5.40
2019-04-28T05:00:00.720Z,5.30
2019-04-28T05:02:36.464Z,5.30
2019-04-28T05:05:08.171Z,5.30
2019-04-28T05:07:36.585Z,5.30
2019-04-28T05:10:06.616Z,5.40
2019-04-28T05:12:35.337Z,5.30
2019-04-28T05:15:05.078Z,5.40
2019-04-28T05:17:33.898Z,5.50
2019-04-28T05:20:02.301Z,5.70
2019-04-28T05:22:32.344Z,5.70
2019-04-28T05:25:05.701Z,5.80
2019-04-28T05:27:34.101Z,5.90
2019-04-28T05:30:05.076Z,6.00
2019-04-28T05:32:44.610Z,6.10
2019-04-28T05:35:05.060Z,6.30
2019-04-28T05:37:33.799Z,6.40
2019-04-28T05:40:02.745Z,6.50
2019-04-28T05:42:31.409Z,6.70
2019-04-28T05:45:00.072Z,6.60
2019-04-28T05:47:30.434Z,6.70
2019-04-28T05:50:10.608Z,6.70
2019-04-28T05:53:00.598Z,6.70
2019-04-28T05:55:36.784Z,6.80
2019-04-28T05:58:21.920Z,7.00
2019-04-28T06:00:51.956Z,6.90
2019-04-28T06:03:25.207Z,6.80
2019-04-28T06:05:56.832Z,6.80
2019-04-28T06:08:34.645Z,6.90
2019-04-28T06:11:04.692Z,7.20
2019-04-28T06:13:33.079Z,7.40
2019-04-28T06:16:01.818Z,7.60
2019-04-28T06:18:30.845Z,7.60
2019-04-28T06:20:59.361Z,7.70
2019-04-28T06:23:28.019Z,7.90
2019-04-28T06:25:56.656Z,7.90
2019-04-28T06:28:25.058Z,8.10
2019-04-28T06:30:53.449Z,8.50
2019-04-28T06:33:21.920Z,8.80
2019-04-28T06:35:50.595Z,8.80
2019-04-28T06:38:19.293Z,8.70
2019-04-28T06:40:47.992Z,8.60
2019-04-28T06:43:16.684Z,8.80
2019-04-28T06:45:45.393Z,8.80
2019-04-28T06:48:13.831Z,8.70
2019-04-28T06:50:42.220Z,8.60
2019-04-28T06:53:10.625Z,8.50
2019-04-28T06:55:39.032Z,8.50
2019-04-28T06:58:07.760Z,8.80
2019-04-28T07:00:36.572Z,8.60
2019-04-28T07:03:05.154Z,8.60
2019-04-28T07:05:33.855Z,8.50
2019-04-28T07:08:02.552Z,8.70
2019-04-28T07:10:30.973Z,8.60
2019-04-28T07:12:59.364Z,8.60
2019-04-28T07:15:28.056Z,8.80
2019-04-28T07:17:56.735Z,9.10
2019-04-28T07:20:27.076Z,9.50
2019-04-28T07:22:55.775Z,9.50
2019-04-28T07:25:24.471Z,9.10
2019-04-28T07:27:52.872Z,9.10
2019-04-28T07:30:21.680Z,9.10
2019-04-28T07:32:50.083Z,9.40
2019-04-28T07:35:18.512Z,9.60
2019-04-28T07:37:46.946Z,9.80
2019-04-28T07:40:15.424Z,9.70
2019-04-28T07:42:44.142Z,9.70
2019-04-28T07:45:12.940Z,9.70
2019-04-28T07:47:41.636Z,9.80
2019-04-28T07:50:10.275Z,9.90
2019-04-28T07:52:40.573Z,10.20
2019-04-28T07:55:09.302Z,10.50
2019-04-28T07:57:38.071Z,10.50
2019-04-28T08:00:09.044Z,11.00
2019-04-28T08:02:37.728Z,11.10
2019-04-28T08:05:07.908Z,11.00
2019-04-28T08:07:36.663Z,10.90
2019-04-28T08:10:07.106Z,10.60
2019-04-28T08:12:35.504Z,10.50
2019-04-28T08:15:04.763Z,10.40
2019-04-28T08:17:33.174Z,10.20
2019-04-28T08:20:02.111Z,10.10
2019-04-28T08:22:30.493Z,10.00
2019-04-28T08:24:59.196Z,10.10
2019-04-28T08:27:27.896Z,10.10
2019-04-28T08:29:58.755Z,10.10
2019-04-28T08:32:31.262Z,9.80
2019-04-28T08:35:00.044Z,10.00
2019-04-28T08:37:28.444Z,10.60
2019-04-28T08:39:57.234Z,10.90
2019-04-28T08:42:25.690Z,11.90
2019-04-28T08:44:54.424Z,12.10
2019-04-28T08:47:23.238Z,11.50
2019-04-28T08:49:51.645Z,11.30
2019-04-28T08:52:20.059Z,11.80
2019-04-28T08:54:48.475Z,11.80
2019-04-28T08:57:16.869Z,11.00
2019-04-28T08:59:45.279Z,10.70
2019-04-28T09:02:13.756Z,10.90
2019-04-28T09:04:42.574Z,11.50
2019-04-28T09:07:10.974Z,12.60
2019-04-28T09:09:39.391Z,13.20
2019-04-28T09:12:07.796Z,12.20
2019-04-28T09:14:36.173Z,11.30
2019-04-28T09:17:04.684Z,11.00
2019-04-28T09:19:33.082Z,9.50
2019-04-28T09:22:01.483Z,9.60
2019-04-28T09:24:30.233Z,9.70
2019-04-28T09:26:58.632Z,9.90
2019-04-28T09:29:27.359Z,10.10
2019-04-28T09:31:55.755Z,10.40
2019-04-28T09:34:28.378Z,11.00
2019-04-28T09:36:54.560Z,11.70
2019-04-28T09:39:41.388Z,11.80
2019-04-28T09:42:27.697Z,11.70
2019-04-28T09:44:56.593Z,11.60
2019-04-28T09:47:44.652Z,11.40
2019-04-28T09:50:13.055Z,11.30
2019-04-28T09:52:41.740Z,12.20
2019-04-28T09:55:10.300Z,14.10
2019-04-28T09:57:38.707Z,16.00
2019-04-28T10:00:09.208Z,17.40
2019-04-28T10:02:37.660Z,17.50
2019-04-28T10:05:09.065Z,18.50
2019-04-28T10:07:37.731Z,19.00
2019-04-28T10:10:08.332Z,19.90
2019-04-28T10:12:36.741Z,19.50
2019-04-28T10:15:09.952Z,18.40
2019-04-28T10:17:38.776Z,16.80
2019-04-28T10:20:07.909Z,16.00
2019-04-28T10:22:36.678Z,15.80
2019-04-28T10:25:08.029Z,15.90
2019-04-28T10:27:36.621Z,16.10
2019-04-28T10:30:08.135Z,16.10
2019-04-28T10:32:36.592Z,15.90
2019-04-28T10:35:07.450Z,15.60
2019-04-28T10:37:36.153Z,16.40
2019-04-28T10:40:08.480Z,17.40
2019-04-28T10:42:37.131Z,17.60
2019-04-28T10:45:08.745Z,17.00
2019-04-28T10:47:37.706Z,15.30
2019-04-28T10:50:06.611Z,16.10
2019-04-28T10:52:35.415Z,18.10
2019-04-28T10:55:05.058Z,19.20
2019-04-28T10:57:33.528Z,21.20
2019-04-28T11:00:03.659Z,21.00
2019-04-28T11:02:32.354Z,22.50
2019-04-28T11:05:08.546Z,21.70
2019-04-28T11:07:32.836Z,21.10
2019-04-28T11:10:12.068Z,18.70
2019-04-28T11:12:40.471Z,16.80
2019-04-28T11:15:10.908Z,16.10
2019-04-28T11:17:39.607Z,15.60
2019-04-28T11:20:08.612Z,15.20
2019-04-28T11:22:37.027Z,15.00
2019-04-28T11:25:07.440Z,14.60
2019-04-28T11:27:36.086Z,15.10
2019-04-28T11:30:07.826Z,15.40
2019-04-28T11:32:37.455Z,15.50
2019-04-28T11:35:20.552Z,16.50
2019-04-28T11:37:38.659Z,17.60
2019-04-28T11:40:07.499Z,19.80
2019-04-28T11:42:36.180Z,20.50
2019-04-28T11:45:05.618Z,21.30
2019-04-28T11:47:34.405Z,22.20
2019-04-28T11:50:03.024Z,21.20
2019-04-28T11:52:31.437Z,19.40
2019-04-28T11:54:59.920Z,18.30
2019-04-28T11:57:28.362Z,18.20
2019-04-28T11:59:56.902Z,19.20
2019-04-28T12:02:25.679Z,20.40
2019-04-28T12:04:55.727Z,19.60
2019-04-28T12:07:24.397Z,19.60
2019-04-28T12:10:05.813Z,17.80
2019-04-28T12:12:53.159Z,17.30
2019-04-28T12:15:38.278Z,17.60
2019-04-28T12:18:08.412Z,18.30
2019-04-28T12:20:36.815Z,19.80
2019-04-28T12:23:05.561Z,19.90
2019-04-28T12:25:34.253Z,20.50
2019-04-28T12:28:02.663Z,20.60
2019-04-28T12:30:31.340Z,20.90
2019-04-28T12:32:59.737Z,21.70
2019-04-28T12:35:28.432Z,22.40
2019-04-28T12:37:56.836Z,23.70
2019-04-28T12:40:25.246Z,25.10
2019-04-28T12:42:53.676Z,23.50
2019-04-28T12:45:34.480Z,21.50
2019-04-28T12:47:52.338Z,20.50
2019-04-28T12:50:22.739Z,17.70
2019-04-28T12:52:51.259Z,16.80
2019-04-28T12:55:19.736Z,16.30
2019-04-28T12:57:48.411Z,15.50
2019-04-28T13:00:21.220Z,15.70
2019-04-28T13:03:07.823Z,15.60
2019-04-28T13:05:37.876Z,16.10
2019-04-28T13:08:06.613Z,17.90
2019-04-28T13:10:35.469Z,19.20
2019-04-28T13:13:04.218Z,20.50
2019-04-28T13:15:32.617Z,21.80
2019-04-28T13:18:01.113Z,23.50
2019-04-28T13:20:29.524Z,23.40
2019-04-28T13:22:58.198Z,24.00
2019-04-28T13:25:26.640Z,24.40
2019-04-28T13:27:55.388Z,24.50
2019-04-28T13:30:23.792Z,24.50
2019-04-28T13:32:52.218Z,25.20
2019-04-28T13:35:20.692Z,25.30
2019-04-28T13:37:49.087Z,26.40
2019-04-28T13:40:31.560Z,25.80
2019-04-28T13:42:59.972Z,23.80
2019-04-28T13:45:29.712Z,24.60
2019-04-28T13:47:58.399Z,25.40
2019-04-28T13:50:34.991Z,24.40
2019-04-28T13:53:03.996Z,24.00
2019-04-28T13:55:46.161Z,23.90
2019-04-28T13:58:16.775Z,24.50
2019-04-28T14:01:03.116Z,24.90
2019-04-28T14:03:42.173Z,25.10
2019-04-28T14:06:28.037Z,25.50
2019-04-28T14:08:51.917Z,26.40
2019-04-28T14:11:20.599Z,25.80
2019-04-28T14:13:48.999Z,25.90
2019-04-28T14:16:17.429Z,23.00
2019-04-28T14:18:45.832Z,23.80
2019-04-28T14:21:14.283Z,26.10
2019-04-28T14:23:43.072Z,25.90
2019-04-28T14:26:11.572Z,26.00
2019-04-28T14:28:40.363Z,22.20
2019-04-28T14:31:09.485Z,21.70
2019-04-28T14:33:38.218Z,21.50
2019-04-28T14:36:07.002Z,20.10
2019-04-28T14:38:35.550Z,20.50
2019-04-28T14:41:04.413Z,21.50
2019-04-28T14:43:32.809Z,23.20
2019-04-28T14:46:01.221Z,24.80
2019-04-28T14:48:29.657Z,26.00
2019-04-28T14:50:58.174Z,25.80
2019-04-28T14:53:26.955Z,25.30
2019-04-28T14:55:55.366Z,24.90
2019-04-28T14:58:23.845Z,24.60
2019-04-28T15:01:06.158Z,24.20
2019-04-28T15:03:36.493Z,25.10
2019-04-28T15:06:09.441Z,23.30
2019-04-28T15:08:52.337Z,23.00
2019-04-28T15:11:25.518Z,24.90
2019-04-28T15:13:55.513Z,25.40
2019-04-28T15:16:24.381Z,26.10
2019-04-28T15:18:52.938Z,26.00
2019-04-28T15:21:21.420Z,26.90
2019-04-28T15:23:50.161Z,26.80
2019-04-28T15:26:18.851Z,26.70
2019-04-28T15:28:47.255Z,26.40
2019-04-28T15:31:15.683Z,26.70
2019-04-28T15:33:44.328Z,26.60
2019-04-28T15:36:13.032Z,26.60
2019-04-28T15:38:41.736Z,26.20
2019-04-28T15:41:20.859Z,27.10
2019-04-28T15:43:40.560Z,27.10
2019-04-28T15:46:09.018Z,27.00
2019-04-28T15:48:37.764Z,27.30
2019-04-28T15:51:06.396Z,27.30
2019-04-28T15:53:36.329Z,27.20
2019-04-28T15:56:15.399Z,26.80
2019-04-28T15:58:43.820Z,27.30
2019-04-28T16:01:12.218Z,28.10
2019-04-28T16:03:40.916Z,27.50
2019-04-28T16:06:09.621Z,26.60
2019-04-28T16:08:38.412Z,25.30
2019-04-28T16:11:07.233Z,25.90
2019-04-28T16:13:36.059Z,26.20
2019-04-28T16:16:04.685Z,26.40
2019-04-28T16:18:33.097Z,26.20
2019-04-28T16:21:01.746Z,27.00
2019-04-28T16:23:30.211Z,26.00
2019-04-28T16:25:58.629Z,25.00
2019-04-28T16:28:27.225Z,24.80
2019-04-28T16:30:55.691Z,25.30
2019-04-28T16:33:24.096Z,24.60
2019-04-28T16:35:52.515Z,23.50
2019-04-28T16:38:21.184Z,22.20
2019-04-28T16:40:57.658Z,21.40
2019-04-28T16:43:31.687Z,21.20
2019-04-28T16:46:00.097Z,19.80
2019-04-28T16:48:28.520Z,18.70
2019-04-28T16:50:56.912Z,17.50
2019-04-28T16:53:25.319Z,17.00
2019-04-28T16:55:55.387Z,16.60
2019-04-28T16:58:25.436Z,16.20
2019-04-28T17:00:58.441Z,15.70
2019-04-28T17:03:28.574Z,15.60
2019-04-28T17:05:56.967Z,16.10
2019-04-28T17:08:25.391Z,16.70
2019-04-28T17:10:54.456Z,17.40
2019-04-28T17:13:22.851Z,18.50
2019-04-28T17:15:51.314Z,18.60
2019-04-28T17:18:19.736Z,17.30
2019-04-28T17:20:48.143Z,16.60
2019-04-28T17:23:16.567Z,16.10
2019-04-28T17:25:44.973Z,15.40
2019-04-28T17:28:13.815Z,14.80
2019-04-28T17:30:43.110Z,14.30
2019-04-28T17:33:11.808Z,14.00
2019-04-28T17:35:40.503Z,13.50
2019-04-28T17:38:08.925Z,13.40
2019-04-28T17:40:37.671Z,13.20
2019-04-28T17:43:07.603Z,13.10
2019-04-28T17:45:36.536Z,12.70
2019-04-28T17:48:07.111Z,12.60
2019-04-28T17:50:36.922Z,12.60
2019-04-28T17:53:05.960Z,12.40
2019-04-28T17:55:34.357Z,12.40
2019-04-28T17:58:02.767Z,12.30
2019-04-28T18:00:45.319Z,12.20
2019-04-28T18:03:15.666Z,12.10
2019-04-28T18:05:51.838Z,12.00
2019-04-28T18:08:21.480Z,11.90
2019-04-28T18:10:50.194Z,11.80
2019-04-28T18:13:18.676Z,11.70
2019-04-28T18:15:48.731Z,11.70
2019-04-28T18:18:19.015Z,11.50
2019-04-28T18:20:47.434Z,11.40
2019-04-28T18:23:15.829Z,11.30
2019-04-28T18:25:44.238Z,11.20
2019-04-28T18:28:12.680Z,11.10
2019-04-28T18:30:43.049Z,11.00
2019-04-28T18:33:25.200Z,10.80
2019-04-28T18:35:55.241Z,10.80
2019-04-28T18:38:35.359Z,10.70
2019-04-28T18:41:03.145Z,10.50
2019-04-28T18:43:49.454Z,10.40
2019-04-28T18:46:19.504Z,10.30
2019-04-28T18:48:48.194Z,10.20
2019-04-28T18:51:16.601Z,10.20
2019-04-28T18:53:45.277Z,10.00
2019-04-28T18:56:14.005Z,9.90
2019-04-28T18:58:42.485Z,9.80
2019-04-28T19:01:18.658Z,9.60
2019-04-28T19:03:47.046Z,9.60
2019-04-28T19:06:15.837Z,9.60
2019-04-28T19:09:09.932Z,9.50
2019-04-28T19:11:49.296Z,9.40
2019-04-28T19:14:37.563Z,9.40
2019-04-28T19:17:18.544Z,9.30
2019-04-28T19:19:47.240Z,9.30
2019-04-28T19:22:15.640Z,9.30
2019-04-28T19:24:44.039Z,9.20
2019-04-28T19:27:12.454Z,9.10
2019-04-28T19:29:40.849Z,9.10
2019-04-28T19:32:09.244Z,8.90
2019-04-28T19:34:37.746Z,8.90
2019-04-28T19:37:06.132Z,8.90
2019-04-28T19:39:40.654Z,8.80
2019-04-28T19:42:07.701Z,8.80
2019-04-28T19:44:36.382Z,8.70
2019-04-28T19:47:04.920Z,8.70
2019-04-28T19:49:33.792Z,8.70
2019-04-28T19:52:02.481Z,8.70
2019-04-28T19:54:32.820Z,8.50
2019-04-28T19:57:18.802Z,8.50
2019-04-28T20:00:05.653Z,8.50
2019-04-28T20:02:35.369Z,8.30
2019-04-28T20:05:04.299Z,8.20
2019-04-28T20:07:32.973Z,8.20
2019-04-28T20:10:01.519Z,8.10
2019-04-28T20:12:30.167Z,8.00
2019-04-28T20:14:58.584Z,7.80
2019-04-28T20:17:27.005Z,7.90
2019-04-28T20:19:55.392Z,8.00
2019-04-28T20:22:24.047Z,7.80
2019-04-28T20:24:52.966Z,7.70
2019-04-28T20:27:21.354Z,7.60
2019-04-28T20:29:50.042Z,7.60
2019-04-28T20:32:18.738Z,7.50
2019-04-28T20:34:47.437Z,7.50
2019-04-28T20:37:35.930Z,7.40
2019-04-28T20:40:13.811Z,7.30
2019-04-28T20:42:43.982Z,7.30
2019-04-28T20:45:14.376Z,7.20
2019-04-28T20:47:42.819Z,7.10
2019-04-28T20:50:11.924Z,7.10
2019-04-28T20:52:40.588Z,7.00
2019-04-28T20:55:09.253Z,7.00
2019-04-28T20:57:37.667Z,7.00
2019-04-28T21:00:06.666Z,7.10
2019-04-28T21:02:35.077Z,7.20
2019-04-28T21:05:04.292Z,7.30
2019-04-28T21:07:32.998Z,7.40
2019-04-28T21:10:01.389Z,7.40
2019-04-28T21:12:29.912Z,7.40
2019-04-28T21:14:58.352Z,7.40
2019-04-28T21:17:26.877Z,7.40
2019-04-28T21:19:55.664Z,7.40
2019-04-28T21:22:24.058Z,7.40
2019-04-28T21:24:52.462Z,7.30
2019-04-28T21:27:21.152Z,7.30
2019-04-28T21:29:49.556Z,7.30
2019-04-28T21:32:18.244Z,7.20
2019-04-28T21:34:46.659Z,7.20
2019-04-28T21:37:18.287Z,7.20
2019-04-28T21:39:45.771Z,7.10
2019-04-28T21:42:15.833Z,7.00
2019-04-28T21:44:48.711Z,7.00
2019-04-28T21:47:18.750Z,7.00
2019-04-28T21:49:47.424Z,7.00
2019-04-28T21:52:16.132Z,6.90
2019-04-28T21:54:44.524Z,6.90
2019-04-28T21:57:32.993Z,6.90
2019-04-28T22:00:01.699Z,7.00
2019-04-28T22:02:30.394Z,7.00
2019-04-28T22:04:58.828Z,7.00
2019-04-28T22:07:27.230Z,7.10
2019-04-28T22:09:55.872Z,7.10
2019-04-28T22:12:24.367Z,7.00
2019-04-28T22:14:53.066Z,7.00
2019-04-28T22:17:21.768Z,7.00
2019-04-28T22:19:50.179Z,7.00
2019-04-28T22:22:18.584Z,6.90
2019-04-28T22:24:48.884Z,6.90
2019-04-28T22:27:19.429Z,7.00
2019-04-28T22:29:48.341Z,7.00
2019-04-28T22:32:17.029Z,6.90
2019-04-28T22:34:45.725Z,6.80
2019-04-28T22:37:14.119Z,6.80
2019-04-28T22:39:42.821Z,6.80
2019-04-28T22:42:11.635Z,6.80
2019-04-28T22:44:40.026Z,6.70
2019-04-28T22:47:08.488Z,6.70
2019-04-28T22:49:37.485Z,6.70
2019-04-28T22:52:05.880Z,6.70
2019-04-28T22:54:42.495Z,6.60
2019-04-28T22:57:15.493Z,6.50
2019-04-28T22:59:51.272Z,6.40
2019-04-28T23:02:21.303Z,6.40
2019-04-28T23:04:51.419Z,6.40
2019-04-28T23:07:20.234Z,6.40
2019-04-28T23:09:48.937Z,6.40
2019-04-28T23:12:17.723Z,6.40
2019-04-28T23:14:46.575Z,6.40
2019-04-28T23:17:16.868Z,6.40
2019-04-28T23:19:45.340Z,6.20
2019-04-28T23:24:58.847Z,6.20
2019-04-28T23:27:27.656Z,6.10
2019-04-28T23:29:56.043Z,6.10
2019-04-28T23:32:24.758Z,6.10
2019-04-28T23:34:53.832Z,6.10
2019-04-28T23:37:22.560Z,6.00
2019-04-28T23:39:51.265Z,6.00
2019-04-28T23:42:24.568Z,5.90
2019-04-28T23:44:53.262Z,5.80
2019-04-28T23:47:21.664Z,5.80
2019-04-28T23:49:50.355Z,5.70
2019-04-28T23:52:35.212Z,5.80
2019-04-28T23:55:05.955Z,5.70
2019-04-28T23:57:34.731Z,5.60
